Time;durP1;ratioP1;P1;durP2;ratioP2;P2;SDS_P1;SDS_P2;PMS_P1;PMS_P2;Temp;Humidity;BMP_temperature;BMP_pressure;BME280_temperature;BME280_humidity;BME280_pressure;Samples;Min_cycle;Max_cycle;Signal;HPM_P1;HPM_P2
2022/06/24 00:00:00;;;;;;;6.32;5.72;;;;;;;;;;5093002;28;20443;-75
2022/06/24 00:02:27;;;;;;;6.53;6.03;;;;;;;;;;5094231;28;20409;-76
2022/06/24 00:04:54;;;;;;;6.20;5.70;;;;;;;;;;5093019;28;20413;-76
2022/06/24 00:07:21;;;;;;;6.35;5.85;;;;;;;;;;5094280;28;20892;-75
2022/06/24 00:09:47;;;;;;;5.97;5.57;;;;;;;;;;5083157;28;20802;-75
2022/06/24 00:12:15;;;;;;;6.40;5.80;;;;;;;;;;5093553;28;20409;-76
2022/06/24 00:14:45;;;;;;;6.88;6.18;;;;;;;;;;5090144;28;20410;-76
2022/06/24 00:17:12;;;;;;;6.95;6.20;;;;;;;;;;5098729;28;20424;-76
2022/06/24 00:19:52;;;;;;;6.50;5.90;;;;;;;;;;5100466;28;20412;-74
2022/06/24 00:22:18;;;;;;;6.23;5.73;;;;;;;;;;5104913;28;20419;-75
2022/06/24 00:24:45;;;;;;;6.43;5.93;;;;;;;;;;5093461;28;20421;-75
2022/06/24 00:27:18;;;;;;;6.82;6.22;;;;;;;;;;5087209;28;20517;-75
2022/06/24 00:29:46;;;;;;;6.90;6.30;;;;;;;;;;5092032;28;20414;-75
2022/06/24 00:32:12;;;;;;;6.60;5.90;;;;;;;;;;5089459;28;20413;-75
2022/06/24 00:34:39;;;;;;;6.20;5.70;;;;;;;;;;5096337;28;20414;-75
2022/06/24 00:37:28;;;;;;;9.80;6.10;;;;;;;;;;5088054;28;20968;-75
2022/06/24 00:39:55;;;;;;;6.53;5.93;;;;;;;;;;5101138;28;20428;-75
2022/06/24 00:42:22;;;;;;;7.10;6.10;;;;;;;;;;5090742;28;20425;-75
2022/06/24 00:44:52;;;;;;;6.55;5.95;;;;;;;;;;5088907;28;20453;-75
2022/06/24 00:47:18;;;;;;;6.78;5.90;;;;;;;;;;5097113;28;20408;-75
2022/06/24 00:49:46;;;;;;;6.60;5.65;;;;;;;;;;5101813;28;20411;-75
2022/06/24 00:52:14;;;;;;;6.50;5.90;;;;;;;;;;5098308;28;20830;-75
2022/06/24 00:54:42;;;;;;;7.40;5.90;;;;;;;;;;5099014;28;20426;-75
2022/06/24 00:57:09;;;;;;;6.65;6.15;;;;;;;;;;5093013;28;20494;-75
2022/06/24 00:59:36;;;;;;;6.50;5.90;;;;;;;;;;5097733;28;20417;-75
2022/06/24 01:02:06;;;;;;;6.50;5.90;;;;;;;;;;5105012;28;20404;-75
2022/06/24 01:04:33;;;;;;;6.00;5.40;;;;;;;;;;5097835;28;20414;-75
2022/06/24 01:06:59;;;;;;;6.72;6.05;;;;;;;;;;5103847;28;20421;-75
2022/06/24 01:09:25;;;;;;;6.53;5.93;;;;;;;;;;5100686;28;20424;-75
2022/06/24 01:11:52;;;;;;;8.00;6.10;;;;;;;;;;5105137;28;20417;-75
2022/06/24 01:14:18;;;;;;;7.00;6.40;;;;;;;;;;5105556;28;20410;-75
2022/06/24 01:16:45;;;;;;;6.63;6.03;;;;;;;;;;5094307;28;20432;-75
2022/06/24 01:19:13;;;;;;;6.83;5.50;;;;;;;;;;5095720;28;20775;-75
2022/06/24 01:21:42;;;;;;;7.28;5.70;;;;;;;;;;5088089;28;20412;-75
2022/06/24 01:24:10;;;;;;;6.93;6.03;;;;;;;;;;5093060;28;20419;-75
2022/06/24 01:26:36;;;;;;;7.13;6.38;;;;;;;;;;5096583;28;20406;-75
2022/06/24 01:29:02;;;;;;;6.60;6.00;;;;;;;;;;5103356;28;20486;-75
2022/06/24 01:31:29;;;;;;;6.70;6.10;;;;;;;;;;5093521;28;20907;-75
2022/06/24 01:33:55;;;;;;;6.30;5.80;;;;;;;;;;5091454;28;20770;-74
2022/06/24 01:36:22;;;;;;;7.05;6.00;;;;;;;;;;5092890;28;20477;-75
2022/06/24 01:38:49;;;;;;;6.22;5.75;;;;;;;;;;5096174;28;20767;-75
2022/06/24 01:41:16;;;;;;;6.40;5.78;;;;;;;;;;5093103;28;20780;-75
2022/06/24 01:43:43;;;;;;;8.40;6.28;;;;;;;;;;5099106;28;20404;-75
2022/06/24 01:46:09;;;;;;;10.10;6.30;;;;;;;;;;5092809;28;20788;-75
2022/06/24 01:48:35;;;;;;;6.33;5.73;;;;;;;;;;5092013;28;20438;-75
2022/06/24 01:51:02;;;;;;;6.63;6.00;;;;;;;;;;5092513;28;20406;-75
2022/06/24 01:53:28;;;;;;;6.90;6.30;;;;;;;;;;5088142;28;20441;-75
2022/06/24 01:55:56;;;;;;;6.20;5.60;;;;;;;;;;5094079;28;20415;-75
2022/06/24 01:58:22;;;;;;;6.20;5.70;;;;;;;;;;5094631;28;20437;-75
2022/06/24 02:00:48;;;;;;;6.20;5.70;;;;;;;;;;5101066;28;20404;-75
2022/06/24 02:03:15;;;;;;;6.43;5.82;;;;;;;;;;5093453;28;20409;-75
2022/06/24 02:05:41;;;;;;;6.75;5.63;;;;;;;;;;5097260;28;20423;-75
2022/06/24 02:08:07;;;;;;;6.40;5.82;;;;;;;;;;5094173;28;20426;-75
2022/06/24 02:13:28;;;;;;;6.20;5.70;;;;;;;;;;5092623;28;20414;-75
2022/06/24 02:15:55;;;;;;;6.35;5.85;;;;;;;;;;5089490;28;20451;-75
2022/06/24 02:18:21;;;;;;;6.40;5.80;;;;;;;;;;5092265;28;20437;-75
2022/06/24 02:20:47;;;;;;;6.88;6.22;;;;;;;;;;5111864;28;20416;-75
2022/06/24 02:23:13;;;;;;;6.10;5.50;;;;;;;;;;5092151;28;20865;-75
2022/06/24 02:25:40;;;;;;;6.72;6.03;;;;;;;;;;5097795;28;20425;-75
2022/06/24 02:28:06;;;;;;;6.43;5.83;;;;;;;;;;5104070;28;20404;-75
2022/06/24 02:30:34;;;;;;;5.82;5.00;;;;;;;;;;5099842;28;20426;-75
2022/06/24 02:33:01;;;;;;;6.20;5.70;;;;;;;;;;5105940;28;20428;-74
2022/06/24 02:35:27;;;;;;;6.30;5.70;;;;;;;;;;5093763;28;20415;-75
2022/06/24 02:37:53;;;;;;;6.78;5.88;;;;;;;;;;5097284;28;20437;-75
2022/06/24 02:43:11;;;;;;;6.95;6.10;;;;;;;;;;5092076;28;20945;-75
2022/06/24 02:45:38;;;;;;;6.40;5.80;;;;;;;;;;5090197;28;20893;-75
2022/06/24 02:48:05;;;;;;;6.80;6.10;;;;;;;;;;5097120;28;20400;-74
2022/06/24 02:50:31;;;;;;;6.43;5.93;;;;;;;;;;5092093;28;20414;-75
2022/06/24 02:52:58;;;;;;;7.30;5.78;;;;;;;;;;5097272;28;20428;-75
2022/06/24 02:55:24;;;;;;;6.70;6.10;;;;;;;;;;5092662;28;20425;-75
2022/06/24 02:57:50;;;;;;;5.80;5.30;;;;;;;;;;5095557;28;20912;-75
2022/06/24 03:00:17;;;;;;;6.40;5.88;;;;;;;;;;5090265;28;20422;-75
2022/06/24 03:02:44;;;;;;;6.70;5.90;;;;;;;;;;5098124;28;20404;-75
2022/06/24 03:05:11;;;;;;;6.47;5.90;;;;;;;;;;5097847;28;20440;-74
2022/06/24 03:07:37;;;;;;;5.82;5.30;;;;;;;;;;5096021;28;20964;-74
2022/06/24 03:10:04;;;;;;;6.07;5.57;;;;;;;;;;5093667;28;20410;-75
2022/06/24 03:12:30;;;;;;;6.30;5.70;;;;;;;;;;5095127;28;20422;-75
2022/06/24 03:14:56;;;;;;;6.15;5.35;;;;;;;;;;5087168;28;20411;-75
2022/06/24 03:17:23;;;;;;;6.23;5.80;;;;;;;;;;5087697;28;20426;-75
2022/06/24 03:19:50;;;;;;;7.18;6.00;;;;;;;;;;5094893;28;20420;-75
2022/06/24 03:22:17;;;;;;;6.25;5.75;;;;;;;;;;5092505;28;20826;-75
2022/06/24 03:24:43;;;;;;;6.03;5.53;;;;;;;;;;5093573;28;20413;-75
2022/06/24 03:27:09;;;;;;;6.47;5.88;;;;;;;;;;5098801;28;20416;-75
2022/06/24 03:29:36;;;;;;;6.35;5.80;;;;;;;;;;5092189;28;20417;-75
2022/06/24 03:32:02;;;;;;;6.57;6.00;;;;;;;;;;5096251;28;20428;-75
2022/06/24 03:34:28;;;;;;;5.97;5.47;;;;;;;;;;5086961;28;20429;-75
2022/06/24 03:36:56;;;;;;;6.17;5.60;;;;;;;;;;5092628;28;20414;-75
2022/06/24 03:39:22;;;;;;;6.82;5.75;;;;;;;;;;5098009;28;20408;-75
2022/06/24 03:41:49;;;;;;;9.57;5.93;;;;;;;;;;5093764;28;20853;-75
2022/06/24 03:44:15;;;;;;;6.32;5.72;;;;;;;;;;5096483;28;20501;-75
2022/06/24 03:46:41;;;;;;;6.20;5.60;;;;;;;;;;5100350;28;20408;-75
2022/06/24 03:49:07;;;;;;;6.93;5.65;;;;;;;;;;5094084;28;20420;-75
2022/06/24 03:51:35;;;;;;;7.25;5.60;;;;;;;;;;5089954;28;20433;-75
2022/06/24 03:54:02;;;;;;;6.47;5.88;;;;;;;;;;5093081;28;20431;-76
2022/06/24 03:56:29;;;;;;;7.50;6.00;;;;;;;;;;5085194;28;20414;-76
2022/06/24 03:58:55;;;;;;;6.90;5.50;;;;;;;;;;5094710;28;20412;-76
2022/06/24 04:01:21;;;;;;;6.32;5.72;;;;;;;;;;5090888;28;20426;-72
2022/06/24 04:03:48;;;;;;;6.03;5.43;;;;;;;;;;5087862;28;20406;-76
2022/06/24 04:06:14;;;;;;;7.00;5.80;;;;;;;;;;5096714;28;20426;-76
2022/06/24 04:08:40;;;;;;;6.22;5.63;;;;;;;;;;5089866;28;20409;-76
2022/06/24 04:11:11;;;;;;;6.30;5.70;;;;;;;;;;5090857;28;20436;-76
2022/06/24 04:13:37;;;;;;;6.13;5.63;;;;;;;;;;5090372;28;20410;-73
2022/06/24 04:16:04;;;;;;;6.70;6.00;;;;;;;;;;5084014;28;20442;-74
2022/06/24 04:18:31;;;;;;;8.50;5.83;;;;;;;;;;5090083;28;20420;-75
2022/06/24 04:20:57;;;;;;;6.80;6.20;;;;;;;;;;5097351;28;20428;-75
2022/06/24 04:23:23;;;;;;;6.20;5.60;;;;;;;;;;5087411;28;20440;-75
2022/06/24 04:25:50;;;;;;;6.70;6.10;;;;;;;;;;5093526;28;20498;-75
2022/06/24 04:28:18;;;;;;;6.30;5.70;;;;;;;;;;5096692;28;20935;-75
2022/06/24 04:30:44;;;;;;;6.20;5.55;;;;;;;;;;5091393;28;20795;-75
2022/06/24 04:33:11;;;;;;;6.60;6.00;;;;;;;;;;5081572;28;20479;-75
2022/06/24 04:35:37;;;;;;;6.55;5.95;;;;;;;;;;5089921;28;20424;-75
2022/06/24 04:38:03;;;;;;;6.85;6.30;;;;;;;;;;5084046;28;20832;-75
2022/06/24 04:40:30;;;;;;;6.30;5.70;;;;;;;;;;5087070;28;20782;-76
2022/06/24 04:42:56;;;;;;;6.63;6.03;;;;;;;;;;5079905;28;20433;-75
2022/06/24 04:45:24;;;;;;;6.88;6.20;;;;;;;;;;5077324;28;20424;-75
2022/06/24 04:47:50;;;;;;;8.25;5.85;;;;;;;;;;5091625;28;20428;-75
2022/06/24 04:50:16;;;;;;;7.87;6.40;;;;;;;;;;5090043;28;20441;-75
2022/06/24 04:52:42;;;;;;;6.70;6.00;;;;;;;;;;5093339;28;20432;-75
2022/06/24 04:55:09;;;;;;;6.80;5.70;;;;;;;;;;5087671;28;20413;-75
2022/06/24 04:57:35;;;;;;;6.40;5.80;;;;;;;;;;5083936;28;20438;-75
2022/06/24 05:00:02;;;;;;;6.70;6.10;;;;;;;;;;5081967;28;20913;-75
2022/06/24 05:02:30;;;;;;;6.90;6.30;;;;;;;;;;5080321;28;20932;-75
2022/06/24 05:04:56;;;;;;;6.57;5.90;;;;;;;;;;5094131;28;20415;-75
2022/06/24 05:07:23;;;;;;;6.72;6.10;;;;;;;;;;5089358;28;20431;-75
2022/06/24 05:09:49;;;;;;;9.65;7.57;;;;;;;;;;5093368;28;20425;-75
2022/06/24 05:12:15;;;;;;;7.20;6.50;;;;;;;;;;5093275;28;20414;-75
2022/06/24 05:14:41;;;;;;;7.00;6.10;;;;;;;;;;5091365;28;20413;-75
2022/06/24 05:17:08;;;;;;;7.30;6.60;;;;;;;;;;5087814;28;20434;-75
2022/06/24 05:19:35;;;;;;;6.43;5.82;;;;;;;;;;5089414;28;20426;-75
2022/06/24 05:22:02;;;;;;;7.45;6.15;;;;;;;;;;5089072;28;20421;-75
2022/06/24 05:24:28;;;;;;;7.50;6.15;;;;;;;;;;5096182;28;20408;-75
2022/06/24 05:26:54;;;;;;;6.50;5.90;;;;;;;;;;5092709;28;20444;-75
2022/06/24 05:29:21;;;;;;;7.13;6.10;;;;;;;;;;5091995;28;20801;-74
2022/06/24 05:31:47;;;;;;;7.47;6.85;;;;;;;;;;5095634;28;20797;-75
2022/06/24 05:34:14;;;;;;;7.10;6.40;;;;;;;;;;5094346;28;20441;-75
2022/06/24 05:36:42;;;;;;;7.00;6.40;;;;;;;;;;5095704;28;20429;-75
2022/06/24 05:39:09;;;;;;;8.07;6.47;;;;;;;;;;5092419;28;20428;-75
2022/06/24 05:41:35;;;;;;;7.32;6.72;;;;;;;;;;5094690;28;20927;-75
2022/06/24 05:44:02;;;;;;;7.95;6.70;;;;;;;;;;5092042;22;20400;-74
2022/06/24 05:46:28;;;;;;;7.20;6.57;;;;;;;;;;5066341;28;20432;-74
2022/06/24 05:48:55;;;;;;;7.05;6.45;;;;;;;;;;5068161;28;20890;-75
2022/06/24 05:51:22;;;;;;;7.13;6.43;;;;;;;;;;5071764;28;20428;-77
2022/06/24 05:56:33;;;;;;;7.90;6.88;;;;;;;;;;5046146;28;20459;-77
2022/06/24 05:59:00;;;;;;;8.00;6.50;;;;;;;;;;5049652;28;20424;-77
2022/06/24 06:01:26;;;;;;;9.93;7.10;;;;;;;;;;5049729;28;20868;-77
2022/06/24 06:03:52;;;;;;;8.55;6.82;;;;;;;;;;5051014;28;20415;-77
2022/06/24 06:06:19;;;;;;;10.50;7.40;;;;;;;;;;5049822;28;20409;-78
2022/06/24 06:08:45;;;;;;;7.77;6.83;;;;;;;;;;5044693;28;20430;-75
2022/06/24 06:11:13;;;;;;;9.18;7.40;;;;;;;;;;5061859;28;20437;-76
2022/06/24 06:13:40;;;;;;;8.95;7.90;;;;;;;;;;5052096;28;20425;-76
2022/06/24 06:16:06;;;;;;;9.05;6.60;;;;;;;;;;5051876;28;20797;-77
2022/06/24 06:18:33;;;;;;;10.32;6.70;;;;;;;;;;5052754;28;20433;-76
2022/06/24 06:21:00;;;;;;;12.00;7.05;;;;;;;;;;5056223;28;20420;-76
2022/06/24 06:23:28;;;;;;;8.02;6.90;;;;;;;;;;5059246;28;20440;-76
2022/06/24 06:25:54;;;;;;;7.10;6.40;;;;;;;;;;5053468;28;20448;-76
2022/06/24 06:28:22;;;;;;;7.03;6.32;;;;;;;;;;5054260;28;20416;-75
2022/06/24 06:30:48;;;;;;;7.72;6.22;;;;;;;;;;5052026;28;20413;-76
2022/06/24 06:33:14;;;;;;;7.45;6.60;;;;;;;;;;5053898;28;20409;-76
2022/06/24 06:35:40;;;;;;;7.32;6.60;;;;;;;;;;5050557;28;20477;-75
2022/06/24 06:38:07;;;;;;;9.43;6.57;;;;;;;;;;5052118;28;20425;-76
2022/06/24 06:40:34;;;;;;;8.07;6.90;;;;;;;;;;5051678;28;20436;-75
2022/06/24 06:43:01;;;;;;;6.97;6.30;;;;;;;;;;5056093;28;20417;-76
2022/06/24 06:45:28;;;;;;;8.27;7.38;;;;;;;;;;5050497;28;20503;-76
2022/06/24 06:47:55;;;;;;;9.60;6.75;;;;;;;;;;5060255;28;20439;-76
2022/06/24 06:50:21;;;;;;;7.78;6.97;;;;;;;;;;5048063;28;20417;-76
2022/06/24 06:52:47;;;;;;;8.35;6.95;;;;;;;;;;5056847;28;20440;-76
2022/06/24 06:55:13;;;;;;;7.38;6.70;;;;;;;;;;5053837;28;20421;-77
2022/06/24 06:57:40;;;;;;;7.90;7.10;;;;;;;;;;5051613;28;20421;-77
2022/06/24 07:00:07;;;;;;;9.98;7.28;;;;;;;;;;5056141;28;20501;-76
2022/06/24 07:02:34;;;;;;;11.20;7.30;;;;;;;;;;5056087;28;20433;-77
2022/06/24 07:05:01;;;;;;;7.40;6.70;;;;;;;;;;5051820;28;20425;-77
2022/06/24 07:07:28;;;;;;;7.18;6.57;;;;;;;;;;5060654;28;20413;-76
2022/06/24 07:09:54;;;;;;;8.23;6.53;;;;;;;;;;5054194;28;20948;-77
2022/06/24 07:12:20;;;;;;;9.27;7.15;;;;;;;;;;5052267;28;20433;-77
2022/06/24 07:14:47;;;;;;;7.72;7.03;;;;;;;;;;5055497;28;20409;-77
2022/06/24 07:17:13;;;;;;;7.22;6.53;;;;;;;;;;5045115;28;20441;-77
2022/06/24 07:19:41;;;;;;;9.77;6.90;;;;;;;;;;5058581;28;20422;-77
2022/06/24 07:22:07;;;;;;;7.80;7.00;;;;;;;;;;5059348;28;20411;-77
2022/06/24 07:24:33;;;;;;;7.05;6.45;;;;;;;;;;5057989;28;20449;-76
2022/06/24 07:27:02;;;;;;;8.32;7.50;;;;;;;;;;5049589;28;20523;-75
2022/06/24 07:29:28;;;;;;;7.85;7.03;;;;;;;;;;5047704;28;20928;-75
2022/06/24 07:31:54;;;;;;;7.78;7.00;;;;;;;;;;5056419;28;20429;-76
2022/06/24 07:34:21;;;;;;;7.72;7.13;;;;;;;;;;5050328;28;20416;-76
2022/06/24 07:36:48;;;;;;;7.93;7.13;;;;;;;;;;5058583;28;20430;-76
2022/06/24 07:39:15;;;;;;;10.30;7.40;;;;;;;;;;5056478;28;20424;-76
2022/06/24 07:41:41;;;;;;;8.95;7.13;;;;;;;;;;5066977;28;20404;-76
2022/06/24 07:44:07;;;;;;;8.38;7.40;;;;;;;;;;5052024;28;20410;-76
2022/06/24 07:46:33;;;;;;;8.30;7.50;;;;;;;;;;5055622;28;20439;-76
2022/06/24 07:49:00;;;;;;;9.50;7.30;;;;;;;;;;5049335;28;20417;-76
2022/06/24 07:51:26;;;;;;;8.40;7.60;;;;;;;;;;5058629;28;20409;-76
2022/06/24 07:53:54;;;;;;;9.40;7.30;;;;;;;;;;5051397;28;20944;-76
2022/06/24 07:59:04;;;;;;;10.15;7.35;;;;;;;;;;5054489;28;20505;-76
2022/06/24 08:01:31;;;;;;;8.80;7.90;;;;;;;;;;5059486;28;20407;-75
2022/06/24 08:03:57;;;;;;;8.07;7.30;;;;;;;;;;5054412;28;20415;-76
2022/06/24 08:06:23;;;;;;;8.98;7.80;;;;;;;;;;5061132;28;20417;-75
2022/06/24 08:08:50;;;;;;;9.05;7.97;;;;;;;;;;5058181;28;20410;-76
2022/06/24 08:11:17;;;;;;;9.50;8.50;;;;;;;;;;5049549;28;20789;-76
2022/06/24 08:13:44;;;;;;;9.18;8.10;;;;;;;;;;5049359;28;20421;-76
2022/06/24 08:16:10;;;;;;;8.88;7.97;;;;;;;;;;5052637;28;20427;-76
2022/06/24 08:18:36;;;;;;;11.15;7.80;;;;;;;;;;5048446;28;20436;-77
2022/06/24 08:21:03;;;;;;;9.63;7.63;;;;;;;;;;5053411;28;20408;-76
2022/06/24 08:23:29;;;;;;;10.93;9.70;;;;;;;;;;5053414;28;20774;-75
2022/06/24 08:25:55;;;;;;;10.07;9.07;;;;;;;;;;5051334;28;20415;-76
2022/06/24 08:28:23;;;;;;;9.50;8.50;;;;;;;;;;5046673;28;20425;-76
2022/06/24 08:30:49;;;;;;;11.75;10.35;;;;;;;;;;5049810;28;20746;-76
2022/06/24 08:33:16;;;;;;;11.50;10.02;;;;;;;;;;5051062;28;20425;-76
2022/06/24 08:35:42;;;;;;;13.80;10.38;;;;;;;;;;5049338;28;20424;-75
2022/06/24 08:38:08;;;;;;;13.60;12.20;;;;;;;;;;5051142;28;20424;-75
2022/06/24 08:40:34;;;;;;;13.07;11.60;;;;;;;;;;5052951;28;20425;-76
2022/06/24 08:43:01;;;;;;;14.50;11.85;;;;;;;;;;5057128;28;20419;-76
2022/06/24 08:45:29;;;;;;;15.82;12.80;;;;;;;;;;5047197;28;20916;-75
2022/06/24 08:47:56;;;;;;;14.27;12.00;;;;;;;;;;5052825;28;20436;-78
2022/06/24 08:50:22;;;;;;;13.68;12.20;;;;;;;;;;5054463;28;20413;-77
2022/06/24 08:52:49;;;;;;;12.00;10.90;;;;;;;;;;5051576;28;20459;-76
2022/06/24 08:55:16;;;;;;;12.70;10.10;;;;;;;;;;5054878;28;20418;-77
2022/06/24 08:57:43;;;;;;;12.88;11.48;;;;;;;;;;5056655;28;20433;-78
2022/06/24 09:00:10;;;;;;;11.88;10.27;;;;;;;;;;5046045;28;20497;-78
2022/06/24 09:02:37;;;;;;;13.52;12.23;;;;;;;;;;5048394;28;20450;-77
2022/06/24 09:05:08;;;;;;;13.73;11.70;;;;;;;;;;5057307;28;20787;-77
2022/06/24 09:07:34;;;;;;;14.85;11.98;;;;;;;;;;5062842;28;20896;-77
2022/06/24 09:10:01;;;;;;;13.13;11.27;;;;;;;;;;5061111;28;20436;-77
2022/06/24 09:12:31;;;;;;;12.75;11.45;;;;;;;;;;5049152;28;20430;-76
2022/06/24 09:15:02;;;;;;;12.82;10.52;;;;;;;;;;5061125;28;20413;-77
2022/06/24 09:17:29;;;;;;;14.10;12.63;;;;;;;;;;5060321;28;20443;-78
2022/06/24 09:20:03;;;;;;;16.20;12.18;;;;;;;;;;5054327;28;20504;-76
2022/06/24 09:22:29;;;;;;;13.30;11.88;;;;;;;;;;5054950;28;20433;-77
2022/06/24 09:24:56;;;;;;;12.75;10.95;;;;;;;;;;5056830;28;20417;-77
2022/06/24 09:27:22;;;;;;;11.77;10.65;;;;;;;;;;5056351;28;20437;-78
2022/06/24 09:29:49;;;;;;;12.73;10.60;;;;;;;;;;5057520;28;20905;-76
2022/06/24 09:32:15;;;;;;;13.82;10.55;;;;;;;;;;5063881;28;20409;-77
2022/06/24 09:34:56;;;;;;;12.73;11.43;;;;;;;;;;5055464;28;20428;-77
2022/06/24 09:37:35;;;;;;;13.00;11.70;;;;;;;;;;5055011;28;20405;-77
2022/06/24 09:40:14;;;;;;;13.85;12.45;;;;;;;;;;5055986;28;20920;-76
2022/06/24 09:42:40;;;;;;;13.57;12.30;;;;;;;;;;5059964;28;20420;-78
2022/06/24 09:45:07;;;;;;;14.03;11.60;;;;;;;;;;5056795;28;20413;-77
2022/06/24 09:47:38;;;;;;;12.95;11.65;;;;;;;;;;5055044;28;20431;-77
2022/06/24 09:50:04;;;;;;;15.52;12.75;;;;;;;;;;5063800;28;20399;-77
2022/06/24 09:52:31;;;;;;;14.23;12.83;;;;;;;;;;5059282;28;20417;-77
2022/06/24 09:55:00;;;;;;;13.57;12.18;;;;;;;;;;5056289;28;20417;-77
2022/06/24 09:57:28;;;;;;;13.52;11.80;;;;;;;;;;5051906;28;20925;-77
2022/06/24 10:02:39;;;;;;;13.45;12.25;;;;;;;;;;5051091;28;20472;-77
2022/06/24 10:05:07;;;;;;;15.25;13.57;;;;;;;;;;5052676;28;20432;-77
2022/06/24 10:07:35;;;;;;;14.68;13.18;;;;;;;;;;5054835;28;20782;-77
2022/06/24 10:10:04;;;;;;;14.40;13.00;;;;;;;;;;5060019;28;20420;-77
2022/06/24 10:12:31;;;;;;;13.45;12.02;;;;;;;;;;5053148;28;20417;-77
2022/06/24 10:14:58;;;;;;;14.38;13.07;;;;;;;;;;5060999;28;20515;-77
2022/06/24 10:17:25;;;;;;;16.50;12.70;;;;;;;;;;5056765;28;20917;-77
2022/06/24 10:19:51;;;;;;;14.98;13.38;;;;;;;;;;5051305;28;20484;-77
2022/06/24 10:22:33;;;;;;;14.20;12.80;;;;;;;;;;5050371;28;20429;-77
2022/06/24 10:24:59;;;;;;;14.17;12.80;;;;;;;;;;5060432;28;20408;-78
2022/06/24 10:27:51;;;;;;;15.50;13.90;;;;;;;;;;5055260;28;20766;-78
2022/06/24 10:30:35;;;;;;;14.88;13.38;;;;;;;;;;5059685;28;20915;-76
2022/06/24 10:33:11;;;;;;;13.60;12.03;;;;;;;;;;5055826;28;20431;-75
2022/06/24 10:35:52;;;;;;;12.13;10.80;;;;;;;;;;5054266;28;20804;-75
2022/06/24 10:38:19;;;;;;;12.35;11.05;;;;;;;;;;5056321;28;20424;-77
2022/06/24 10:40:46;;;;;;;11.40;10.27;;;;;;;;;;5052848;28;20441;-77
2022/06/24 10:43:12;;;;;;;11.88;10.77;;;;;;;;;;5051447;28;20528;-77
2022/06/24 10:45:40;;;;;;;12.07;10.80;;;;;;;;;;5049276;28;20425;-78
2022/06/24 10:48:06;;;;;;;12.00;10.80;;;;;;;;;;5052936;28;20429;-77
2022/06/24 10:50:33;;;;;;;12.32;11.02;;;;;;;;;;5054391;28;20924;-78
2022/06/24 10:53:03;;;;;;;12.18;10.88;;;;;;;;;;5054830;28;20409;-78
2022/06/24 10:55:36;;;;;;;13.93;11.15;;;;;;;;;;5053683;28;20517;-77
2022/06/24 10:58:04;;;;;;;11.20;10.30;;;;;;;;;;5052734;28;20439;-78
2022/06/24 11:00:43;;;;;;;12.40;11.13;;;;;;;;;;5052822;28;20428;-78
2022/06/24 11:03:13;;;;;;;12.75;11.30;;;;;;;;;;5052867;28;20442;-78
2022/06/24 11:05:40;;;;;;;13.15;10.50;;;;;;;;;;5052977;28;20440;-77
2022/06/24 11:08:10;;;;;;;11.60;10.52;;;;;;;;;;5053331;28;20551;-78
2022/06/24 11:10:36;;;;;;;11.73;9.80;;;;;;;;;;5056111;28;20420;-77
2022/06/24 11:13:03;;;;;;;12.10;9.52;;;;;;;;;;5048269;28;20436;-77
2022/06/24 11:15:33;;;;;;;11.53;10.33;;;;;;;;;;5056705;28;20433;-77
2022/06/24 11:18:06;;;;;;;10.90;9.80;;;;;;;;;;5051053;28;20924;-78
2022/06/24 11:20:35;;;;;;;11.55;10.45;;;;;;;;;;5058161;28;20417;-77
2022/06/24 11:23:06;;;;;;;10.43;9.30;;;;;;;;;;5059447;28;20418;-78
2022/06/24 11:25:33;;;;;;;9.33;8.43;;;;;;;;;;5055024;28;20421;-77
2022/06/24 11:28:00;;;;;;;8.43;7.35;;;;;;;;;;5053081;28;20447;-77
2022/06/24 11:30:26;;;;;;;7.07;6.20;;;;;;;;;;5049663;28;20418;-77
2022/06/24 11:32:53;;;;;;;6.28;5.60;;;;;;;;;;5055053;28;20428;-78
2022/06/24 11:35:22;;;;;;;10.23;5.78;;;;;;;;;;5048116;28;20425;-78
2022/06/24 11:37:48;;;;;;;5.77;4.57;;;;;;;;;;5064238;28;20423;-75
2022/06/24 11:40:20;;;;;;;6.47;4.72;;;;;;;;;;5057305;28;20425;-76
2022/06/24 11:45:14;;;;;;;6.05;3.58;;;;;;;;;;5051426;28;20422;-73
2022/06/24 11:47:40;;;;;;;3.83;2.97;;;;;;;;;;5056578;28;20424;-73
2022/06/24 11:50:17;;;;;;;4.20;2.92;;;;;;;;;;5046365;28;20428;-73
2022/06/24 11:52:48;;;;;;;3.70;2.80;;;;;;;;;;5058239;28;20411;-73
2022/06/24 11:55:24;;;;;;;4.53;2.53;;;;;;;;;;5072373;28;20501;-73
2022/06/24 11:57:53;;;;;;;4.32;3.03;;;;;;;;;;5070392;28;20427;-73
2022/06/24 12:00:19;;;;;;;4.97;2.90;;;;;;;;;;5070791;28;20420;-73
2022/06/24 12:02:46;;;;;;;3.03;2.70;;;;;;;;;;5075084;28;20428;-73
2022/06/24 12:05:12;;;;;;;5.25;2.50;;;;;;;;;;5066538;28;20934;-73
2022/06/24 12:07:39;;;;;;;2.55;2.30;;;;;;;;;;5072477;28;20434;-73
2022/06/24 12:10:07;;;;;;;3.50;2.40;;;;;;;;;;5067222;28;20415;-73
2022/06/24 12:12:34;;;;;;;4.25;2.67;;;;;;;;;;5072606;28;20407;-73
2022/06/24 12:15:00;;;;;;;2.80;1.90;;;;;;;;;;5072685;28;20414;-73
2022/06/24 12:17:26;;;;;;;2.60;1.80;;;;;;;;;;5073452;28;20867;-72
2022/06/24 12:19:56;;;;;;;3.38;2.00;;;;;;;;;;5074934;28;20437;-74
2022/06/24 12:22:23;;;;;;;4.03;2.25;;;;;;;;;;5069469;28;20454;-73
2022/06/24 12:25:00;;;;;;;5.43;2.50;;;;;;;;;;5071574;28;20418;-73
2022/06/24 12:27:33;;;;;;;3.50;2.20;;;;;;;;;;5057999;28;20469;-73
2022/06/24 12:29:59;;;;;;;6.72;2.40;;;;;;;;;;5067502;28;20423;-73
2022/06/24 12:32:26;;;;;;;4.97;2.40;;;;;;;;;;5070995;28;20419;-74
2022/06/24 12:34:54;;;;;;;3.97;2.10;;;;;;;;;;5071843;28;20428;-73
2022/06/24 12:37:20;;;;;;;4.95;2.50;;;;;;;;;;5067074;28;20462;-73
2022/06/24 12:39:47;;;;;;;3.70;2.30;;;;;;;;;;5070401;28;20419;-73
2022/06/24 12:42:14;;;;;;;5.55;2.63;;;;;;;;;;5072577;28;20435;-74
2022/06/24 12:44:42;;;;;;;4.95;2.35;;;;;;;;;;5074685;28;20426;-74
2022/06/24 12:52:40;;;;;;;5.82;2.50;;;;;;;;;;5072990;28;20562;-73
2022/06/24 12:55:07;;;;;;;4.47;2.28;;;;;;;;;;5072527;28;20422;-73
2022/06/24 12:57:33;;;;;;;3.50;2.25;;;;;;;;;;5073819;28;20434;-73
2022/06/24 13:00:03;;;;;;;4.57;2.75;;;;;;;;;;5074405;28;20455;-74
2022/06/24 13:02:30;;;;;;;5.53;2.28;;;;;;;;;;5075754;28;20422;-73
2022/06/24 13:04:57;;;;;;;4.55;2.28;;;;;;;;;;5076688;28;20415;-73
2022/06/24 13:07:23;;;;;;;4.88;2.50;;;;;;;;;;5067858;28;20910;-74
2022/06/24 13:09:50;;;;;;;6.38;2.38;;;;;;;;;;5076046;28;20418;-73
2022/06/24 13:12:16;;;;;;;3.88;2.50;;;;;;;;;;5078553;28;20411;-73
2022/06/24 13:14:42;;;;;;;3.00;2.70;;;;;;;;;;5074027;28;20426;-73
2022/06/24 13:17:10;;;;;;;4.80;2.50;;;;;;;;;;5079419;28;20781;-74
2022/06/24 13:19:36;;;;;;;3.80;2.70;;;;;;;;;;5079364;28;20926;-74
2022/06/24 13:22:03;;;;;;;6.40;2.63;;;;;;;;;;5083003;28;20422;-73
2022/06/24 13:24:29;;;;;;;5.30;2.50;;;;;;;;;;5065162;28;20423;-74
2022/06/24 13:26:56;;;;;;;3.83;2.20;;;;;;;;;;5072673;28;20419;-74
2022/06/24 13:29:22;;;;;;;5.43;2.50;;;;;;;;;;5071377;28;20420;-74
2022/06/24 13:31:48;;;;;;;6.22;2.30;;;;;;;;;;5072265;28;20808;-73
2022/06/24 13:34:16;;;;;;;4.25;2.38;;;;;;;;;;5071552;28;20434;-74
2022/06/24 13:36:42;;;;;;;5.57;2.08;;;;;;;;;;5073572;28;20416;-73
2022/06/24 13:39:09;;;;;;;5.22;2.33;;;;;;;;;;5073175;28;20787;-73
2022/06/24 13:41:35;;;;;;;5.13;2.60;;;;;;;;;;5074917;28;20436;-74
2022/06/24 13:44:02;;;;;;;5.75;2.70;;;;;;;;;;5067697;28;20778;-73
2022/06/24 13:46:29;;;;;;;4.95;3.05;;;;;;;;;;5069264;28;20427;-73
2022/06/24 13:48:57;;;;;;;3.88;2.22;;;;;;;;;;5075334;28;20487;-73
2022/06/24 13:51:24;;;;;;;4.67;2.37;;;;;;;;;;5078438;28;20418;-73
2022/06/24 13:53:52;;;;;;;3.10;2.25;;;;;;;;;;5078460;28;20408;-73
2022/06/24 13:56:18;;;;;;;3.80;2.30;;;;;;;;;;5074074;28;20808;-73
2022/06/24 13:58:45;;;;;;;4.20;2.05;;;;;;;;;;5068097;28;20425;-73
2022/06/24 14:01:12;;;;;;;4.85;2.60;;;;;;;;;;5074499;28;20940;-73
2022/06/24 14:03:38;;;;;;;4.15;2.40;;;;;;;;;;5076628;28;20417;-74
2022/06/24 14:06:05;;;;;;;3.28;2.30;;;;;;;;;;5075301;28;20538;-73
2022/06/24 14:08:32;;;;;;;5.40;2.20;;;;;;;;;;5072354;28;20430;-73
2022/06/24 14:10:59;;;;;;;4.70;2.90;;;;;;;;;;5066798;28;20419;-73
2022/06/24 14:13:25;;;;;;;4.60;2.20;;;;;;;;;;5073183;28;20438;-74
2022/06/24 14:15:52;;;;;;;3.80;2.70;;;;;;;;;;5071891;28;20454;-73
2022/06/24 14:18:18;;;;;;;4.83;2.67;;;;;;;;;;5075569;28;20422;-73
2022/06/24 14:20:44;;;;;;;3.90;2.40;;;;;;;;;;5072976;28;20431;-74
2022/06/24 14:25:56;;;;;;;3.60;2.40;;;;;;;;;;5084855;28;20479;-73
2022/06/24 14:28:22;;;;;;;3.67;2.60;;;;;;;;;;5084641;28;20408;-74
2022/06/24 14:30:48;;;;;;;2.78;2.53;;;;;;;;;;5068093;28;20421;-73
2022/06/24 14:33:15;;;;;;;6.25;2.85;;;;;;;;;;5076870;28;20430;-73
2022/06/24 14:35:41;;;;;;;6.10;4.45;;;;;;;;;;5074390;28;20417;-73
2022/06/24 14:40:51;;;;;;;6.28;4.35;;;;;;;;;;5080833;28;20790;-73
2022/06/24 14:43:19;;;;;;;5.80;4.90;;;;;;;;;;5082479;28;20418;-73
2022/06/24 14:45:46;;;;;;;6.70;4.97;;;;;;;;;;5080894;28;20448;-73
2022/06/24 14:48:12;;;;;;;4.82;4.07;;;;;;;;;;5079319;28;20410;-73
2022/06/24 14:50:38;;;;;;;4.80;4.07;;;;;;;;;;5079674;28;20410;-73
2022/06/24 14:53:05;;;;;;;5.10;4.50;;;;;;;;;;5066523;28;20428;-73
2022/06/24 14:55:31;;;;;;;4.95;4.43;;;;;;;;;;5067964;28;20431;-73
2022/06/24 14:57:58;;;;;;;4.70;4.25;;;;;;;;;;5067911;28;20470;-74
2022/06/24 15:00:26;;;;;;;5.80;4.30;;;;;;;;;;5063532;28;20424;-74
2022/06/24 15:02:53;;;;;;;6.95;4.28;;;;;;;;;;5065015;28;20468;-74
2022/06/24 15:05:19;;;;;;;4.95;4.55;;;;;;;;;;5075860;28;20422;-73